Time;durP1;ratioP1;P1;durP2;ratioP2;P2;SDS_P1;SDS_P2;PMS_P1;PMS_P2;Temp;Humidity;BMP_temperature;BMP_pressure;BME280_temperature;BME280_humidity;BME280_pressure;Samples;Min_cycle;Max_cycle;Signal;HPM_P1;HPM_P2
2023/05/05 00:01:25;;;;;;;11.93;4.85;;;11.90;99.90;;;;;;5090203;28;20397;-75
2023/05/05 00:03:51;;;;;;;10.83;5.00;;;11.90;99.90;;;;;;5072742;28;20413;-75
2023/05/05 00:06:17;;;;;;;10.77;4.97;;;11.80;99.90;;;;;;5089793;28;20429;-75
2023/05/05 00:08:42;;;;;;;11.50;4.95;;;11.80;99.90;;;;;;5090485;28;20452;-75
2023/05/05 00:11:08;;;;;;;11.57;5.10;;;11.80;99.90;;;;;;5090110;28;20451;-75
2023/05/05 00:13:34;;;;;;;11.63;4.72;;;11.80;99.90;;;;;;5089544;28;20402;-75
2023/05/05 00:16:00;;;;;;;13.50;4.90;;;11.80;99.90;;;;;;5089815;28;20417;-75
2023/05/05 00:18:25;;;;;;;9.90;4.80;;;11.80;99.90;;;;;;5090759;28;20432;-76
2023/05/05 00:20:51;;;;;;;10.88;4.30;;;11.80;99.90;;;;;;5089354;28;20410;-76
2023/05/05 00:23:18;;;;;;;11.83;5.77;;;11.80;99.90;;;;;;5089377;28;20817;-75
2023/05/05 00:25:44;;;;;;;11.48;5.22;;;11.70;99.90;;;;;;5089679;28;20954;-75
2023/05/05 00:28:10;;;;;;;12.15;5.07;;;11.70;99.90;;;;;;5089286;28;20414;-75
2023/05/05 00:30:36;;;;;;;10.77;5.07;;;11.70;99.90;;;;;;5089784;28;20448;-75
2023/05/05 00:33:01;;;;;;;10.93;5.33;;;11.70;99.90;;;;;;5090271;28;20448;-75
2023/05/05 00:35:27;;;;;;;11.60;4.90;;;11.70;99.90;;;;;;5090807;28;21079;-75
2023/05/05 00:37:53;;;;;;;12.23;5.57;;;11.60;99.90;;;;;;5089558;28;20406;-75
2023/05/05 00:40:19;;;;;;;10.65;4.78;;;11.60;99.90;;;;;;5090120;28;20438;-75
2023/05/05 00:42:46;;;;;;;11.93;4.85;;;11.60;99.90;;;;;;5090095;28;20775;-75
2023/05/05 00:45:14;;;;;;;11.85;5.38;;;11.60;99.90;;;;;;5089615;28;20922;-75
2023/05/05 00:47:56;;;;;;;10.27;4.70;;;11.60;99.90;;;;;;5090812;28;20410;-76
2023/05/05 00:50:23;;;;;;;11.20;5.17;;;11.50;99.90;;;;;;5090794;28;20420;-75
2023/05/05 00:52:51;;;;;;;14.10;5.20;;;11.60;99.90;;;;;;5089650;28;20445;-75
2023/05/05 00:55:18;;;;;;;10.13;5.03;;;11.50;99.90;;;;;;5091690;28;20405;-75
2023/05/05 00:57:44;;;;;;;13.02;5.20;;;11.50;99.90;;;;;;5088433;28;20406;-75
2023/05/05 01:00:11;;;;;;;13.57;5.57;;;11.50;99.90;;;;;;5091246;28;20405;-75
2023/05/05 01:02:38;;;;;;;11.25;4.78;;;11.50;99.90;;;;;;5089850;28;20858;-75
2023/05/05 01:05:04;;;;;;;12.73;5.07;;;11.50;99.90;;;;;;5090163;28;20432;-75
2023/05/05 01:07:42;;;;;;;9.15;4.70;;;11.50;99.90;;;;;;5090683;28;20410;-75
2023/05/05 01:10:35;;;;;;;11.95;4.82;;;11.50;99.90;;;;;;5090964;28;20440;-75
2023/05/05 01:13:40;;;;;;;8.73;4.65;;;11.50;99.90;;;;;;5083314;28;20413;-75
2023/05/05 01:16:23;;;;;;;11.13;4.88;;;11.50;99.90;;;;;;5078859;28;20770;-75
2023/05/05 01:19:27;;;;;;;11.73;4.90;;;11.50;99.90;;;;;;5091449;28;20791;-75
2023/05/05 01:21:58;;;;;;;11.47;5.07;;;11.40;99.90;;;;;;5026876;28;20423;-75
2023/05/05 01:24:56;;;;;;;13.33;5.27;;;11.40;99.90;;;;;;5069890;28;20414;-75
2023/05/05 01:27:54;;;;;;;11.77;4.57;;;11.40;99.90;;;;;;5079430;28;20900;-75
2023/05/05 01:30:32;;;;;;;10.35;4.63;;;11.40;99.90;;;;;;5086167;28;20438;-74
2023/05/05 01:33:07;;;;;;;11.20;4.85;;;11.40;99.90;;;;;;5074634;28;20403;-74
2023/05/05 01:35:40;;;;;;;9.00;4.53;;;11.30;99.90;;;;;;5088016;28;20444;-74
2023/05/05 01:38:21;;;;;;;11.05;5.05;;;11.30;99.90;;;;;;5086235;28;20945;-74
2023/05/05 01:41:03;;;;;;;8.77;4.13;;;11.30;99.90;;;;;;5073246;28;20497;-74
2023/05/05 01:43:32;;;;;;;11.35;4.28;;;11.20;99.90;;;;;;5089431;28;20418;-74
2023/05/05 01:46:00;;;;;;;9.57;4.30;;;11.20;99.90;;;;;;5087090;28;20433;-73
2023/05/05 01:48:28;;;;;;;10.73;5.00;;;11.20;99.90;;;;;;5088246;28;20406;-73
2023/05/05 01:50:54;;;;;;;11.32;4.35;;;11.20;99.90;;;;;;5089224;28;20862;-74
2023/05/05 01:53:22;;;;;;;10.20;4.88;;;11.20;99.90;;;;;;5088508;28;20441;-74
2023/05/05 01:55:49;;;;;;;10.23;4.40;;;11.10;99.90;;;;;;5089153;28;20406;-74
2023/05/05 01:58:16;;;;;;;10.20;4.43;;;11.10;99.90;;;;;;5088331;28;20417;-74
2023/05/05 02:00:43;;;;;;;9.93;4.30;;;11.10;99.90;;;;;;5087652;28;20564;-74
2023/05/05 02:03:11;;;;;;;9.82;4.07;;;11.10;99.90;;;;;;5089088;28;20932;-74
2023/05/05 02:05:38;;;;;;;8.45;3.78;;;11.10;99.90;;;;;;5088326;28;20768;-74
2023/05/05 02:08:05;;;;;;;12.23;4.40;;;11.10;99.90;;;;;;5090198;28;20409;-74
2023/05/05 02:10:31;;;;;;;9.73;4.40;;;11.10;99.90;;;;;;5088639;28;20476;-74
2023/05/05 02:13:01;;;;;;;10.30;4.32;;;11.10;99.90;;;;;;5088574;28;20413;-74
2023/05/05 02:15:28;;;;;;;12.63;4.63;;;11.10;99.90;;;;;;5088159;28;20412;-74
2023/05/05 02:17:54;;;;;;;10.75;4.30;;;11.10;99.90;;;;;;5088289;28;20442;-74
2023/05/05 02:20:22;;;;;;;10.40;4.60;;;11.10;99.90;;;;;;5087491;28;20401;-74
2023/05/05 02:22:48;;;;;;;11.37;4.93;;;11.00;99.90;;;;;;5058885;28;20402;-74
2023/05/05 02:25:16;;;;;;;10.07;4.50;;;11.00;99.90;;;;;;5086561;28;20939;-74
2023/05/05 02:27:43;;;;;;;11.40;4.80;;;11.00;99.90;;;;;;5088568;28;20394;-74
2023/05/05 02:30:12;;;;;;;8.88;4.50;;;11.00;99.90;;;;;;5086879;28;20904;-74
2023/05/05 02:32:54;;;;;;;10.05;4.75;;;11.00;99.90;;;;;;5086973;28;20410;-74
2023/05/05 02:35:23;;;;;;;9.50;4.95;;;11.00;99.90;;;;;;5087847;28;20473;-74
2023/05/05 02:38:01;;;;;;;11.30;4.90;;;10.90;99.90;;;;;;5088008;28;20394;-74
2023/05/05 02:40:30;;;;;;;9.93;4.75;;;10.90;99.90;;;;;;5085362;28;20410;-74
2023/05/05 02:42:59;;;;;;;10.40;5.07;;;10.90;99.90;;;;;;5086940;28;20402;-74
2023/05/05 02:45:27;;;;;;;10.52;4.55;;;10.90;99.90;;;;;;5087841;28;20425;-74
2023/05/05 02:47:52;;;;;;;10.03;4.80;;;10.90;99.90;;;;;;5087308;28;20462;-73
2023/05/05 02:50:18;;;;;;;9.80;5.10;;;10.90;99.90;;;;;;5085056;28;20409;-74
2023/05/05 02:52:44;;;;;;;8.97;5.00;;;10.90;99.90;;;;;;5085767;28;20476;-74
2023/05/05 02:55:10;;;;;;;10.20;4.87;;;10.90;99.90;;;;;;5085943;28;20424;-74
2023/05/05 02:58:23;;;;;;;10.60;5.00;;;10.90;99.90;;;;;;5086254;28;20531;-74
2023/05/05 03:00:48;;;;;;;10.93;4.70;;;10.90;99.90;;;;;;5007397;28;20425;-74
2023/05/05 03:03:24;;;;;;;9.47;4.93;;;10.90;99.90;;;;;;5075082;28;20468;-74
2023/05/05 03:06:06;;;;;;;10.57;4.80;;;10.90;99.90;;;;;;5101895;28;20438;-74
2023/05/05 03:08:42;;;;;;;10.00;4.90;;;10.90;99.90;;;;;;5091933;28;20890;-74
2023/05/05 03:11:17;;;;;;;8.40;4.65;;;10.90;99.90;;;;;;5095792;28;20411;-74
2023/05/05 03:13:43;;;;;;;12.55;5.10;;;10.90;99.90;;;;;;5097331;28;20791;-74
2023/05/05 03:16:10;;;;;;;9.07;4.35;;;10.90;99.90;;;;;;5090335;28;20447;-74
2023/05/05 03:18:38;;;;;;;10.47;4.50;;;10.80;99.90;;;;;;5073121;28;20405;-74
2023/05/05 03:21:08;;;;;;;11.35;4.88;;;10.90;99.90;;;;;;5091758;28;20787;-74
2023/05/05 03:23:35;;;;;;;9.90;4.65;;;10.80;99.90;;;;;;5090103;28;20402;-74
2023/05/05 03:26:00;;;;;;;10.20;4.25;;;10.80;99.90;;;;;;5089539;28;20520;-74
2023/05/05 03:28:26;;;;;;;10.10;4.63;;;10.80;99.90;;;;;;5090407;28;20489;-74
2023/05/05 03:30:52;;;;;;;9.63;4.70;;;10.80;99.90;;;;;;5090198;28;20463;-74
2023/05/05 03:33:18;;;;;;;11.75;4.90;;;10.80;99.90;;;;;;5090177;28;20419;-74
2023/05/05 03:35:44;;;;;;;11.80;4.90;;;10.80;99.90;;;;;;5106892;28;20413;-73
2023/05/05 03:38:10;;;;;;;12.00;4.57;;;10.80;99.90;;;;;;5088906;28;20471;-74
2023/05/05 03:40:36;;;;;;;8.93;4.30;;;10.70;99.90;;;;;;5092453;28;20509;-74
2023/05/05 03:43:02;;;;;;;9.32;4.35;;;10.70;99.90;;;;;;5091506;28;20405;-74
2023/05/05 03:45:27;;;;;;;10.20;4.55;;;10.70;99.90;;;;;;5093982;28;20437;-74
2023/05/05 03:47:53;;;;;;;8.03;4.03;;;10.60;99.90;;;;;;5093483;28;20429;-74
2023/05/05 03:50:18;;;;;;;7.60;4.45;;;10.70;99.90;;;;;;5094231;28;20397;-74
2023/05/05 03:52:44;;;;;;;9.07;4.30;;;10.60;99.90;;;;;;5091339;28;20871;-73
2023/05/05 03:55:10;;;;;;;9.90;4.55;;;10.60;99.90;;;;;;5093594;28;20402;-74
2023/05/05 03:57:35;;;;;;;9.53;4.33;;;10.60;99.90;;;;;;5091883;28;20927;-74
2023/05/05 04:00:01;;;;;;;9.75;4.10;;;10.60;99.90;;;;;;5093781;28;20485;-74
2023/05/05 04:02:27;;;;;;;7.87;4.10;;;10.60;99.90;;;;;;5092402;28;20412;-74
2023/05/05 04:04:52;;;;;;;7.03;4.07;;;10.60;99.90;;;;;;5091150;28;20425;-74
2023/05/05 04:07:18;;;;;;;8.43;4.00;;;10.60;99.90;;;;;;5093931;28;20405;-74
2023/05/05 04:09:44;;;;;;;10.23;4.28;;;10.60;99.90;;;;;;5094358;28;20463;-74
2023/05/05 04:12:10;;;;;;;8.65;3.95;;;10.60;99.90;;;;;;5093142;28;20923;-74
2023/05/05 04:14:36;;;;;;;7.63;3.60;;;10.60;99.90;;;;;;5094482;28;20488;-74
2023/05/05 04:17:02;;;;;;;8.67;4.17;;;10.60;99.90;;;;;;5092899;28;20481;-74
2023/05/05 04:19:27;;;;;;;9.45;4.20;;;10.60;99.90;;;;;;5074537;28;20433;-73
2023/05/05 04:21:53;;;;;;;7.20;3.87;;;10.70;99.90;;;;;;5092745;28;20410;-74
2023/05/05 04:24:23;;;;;;;7.17;3.63;;;10.70;99.90;;;;;;5096136;28;20426;-74
2023/05/05 04:26:49;;;;;;;7.30;3.45;;;10.70;99.90;;;;;;5092861;28;20406;-73
2023/05/05 04:29:15;;;;;;;9.27;4.40;;;10.70;99.90;;;;;;5094316;28;20505;-74
2023/05/05 04:31:41;;;;;;;13.35;4.30;;;10.80;99.90;;;;;;5092403;28;20847;-74
2023/05/05 04:34:07;;;;;;;7.22;4.03;;;10.80;99.90;;;;;;5095438;28;20760;-74
2023/05/05 04:36:32;;;;;;;8.40;4.10;;;10.90;99.90;;;;;;5092476;28;20398;-74
2023/05/05 04:38:58;;;;;;;8.73;3.90;;;10.90;99.90;;;;;;5072214;28;20409;-74
2023/05/05 04:41:23;;;;;;;9.30;4.20;;;10.90;99.90;;;;;;5089510;28;20791;-74
2023/05/05 04:43:49;;;;;;;9.57;4.18;;;11.00;99.90;;;;;;5088426;28;20406;-74
2023/05/05 04:46:15;;;;;;;9.60;3.93;;;11.10;99.90;;;;;;5088938;28;20433;-74
2023/05/05 04:48:40;;;;;;;8.07;3.90;;;11.10;99.90;;;;;;5072162;28;20402;-75
2023/05/05 04:51:06;;;;;;;7.90;3.77;;;11.10;99.90;;;;;;5090240;28;20437;-74
2023/05/05 04:53:32;;;;;;;10.32;3.80;;;11.10;99.90;;;;;;5088891;28;20405;-76
2023/05/05 04:55:59;;;;;;;8.03;3.80;;;11.10;99.90;;;;;;5090867;28;20725;-74
2023/05/05 04:58:25;;;;;;;9.98;3.97;;;11.20;99.90;;;;;;5088873;28;20428;-74
2023/05/05 05:00:51;;;;;;;9.27;3.83;;;11.10;99.90;;;;;;5090630;28;20437;-74
2023/05/05 05:03:16;;;;;;;8.83;4.00;;;11.10;99.90;;;;;;5089404;28;20793;-74
2023/05/05 05:05:42;;;;;;;8.82;3.92;;;11.10;99.90;;;;;;5089797;28;20448;-74
2023/05/05 05:08:07;;;;;;;8.87;4.27;;;11.00;99.90;;;;;;5072579;28;20430;-74
2023/05/05 05:10:34;;;;;;;9.57;4.20;;;11.10;99.90;;;;;;5090724;28;20402;-74
2023/05/05 05:13:00;;;;;;;8.48;4.43;;;11.00;99.90;;;;;;5088386;28;20912;-74
2023/05/05 05:15:25;;;;;;;9.52;4.93;;;11.00;99.90;;;;;;5072827;28;20417;-74
2023/05/05 05:17:51;;;;;;;10.33;4.73;;;11.00;99.90;;;;;;5074140;28;20402;-74
2023/05/05 05:20:17;;;;;;;8.40;4.50;;;11.00;99.90;;;;;;5089445;28;20485;-74
2023/05/05 05:22:43;;;;;;;9.70;5.10;;;10.90;99.90;;;;;;5088382;28;20410;-74
2023/05/05 05:25:09;;;;;;;12.68;7.13;;;10.90;99.90;;;;;;5088300;28;20826;-74
2023/05/05 05:27:35;;;;;;;13.87;8.67;;;10.90;99.90;;;;;;5087616;28;20855;-74
2023/05/05 05:30:01;;;;;;;12.10;6.60;;;10.80;99.90;;;;;;5071777;28;20803;-74
2023/05/05 05:32:27;;;;;;;11.30;6.50;;;10.80;99.90;;;;;;5088058;28;20413;-74
2023/05/05 05:34:53;;;;;;;11.57;6.30;;;10.80;99.90;;;;;;5088580;28;20409;-74
2023/05/05 05:37:18;;;;;;;13.02;6.53;;;10.70;99.90;;;;;;5088111;28;20745;-74
2023/05/05 05:39:50;;;;;;;10.77;6.53;;;10.70;99.90;;;;;;5087852;28;20414;-74
2023/05/05 05:42:16;;;;;;;13.35;6.80;;;10.70;99.90;;;;;;5088951;28;20447;-74
2023/05/05 05:44:41;;;;;;;12.50;5.90;;;10.70;99.90;;;;;;5089158;28;20767;-74
2023/05/05 05:47:07;;;;;;;12.48;6.45;;;10.60;99.90;;;;;;5087640;28;20406;-74
2023/05/05 05:49:33;;;;;;;12.70;6.23;;;10.60;99.90;;;;;;5088994;28;20494;-75
2023/05/05 05:51:58;;;;;;;19.58;7.32;;;10.60;99.90;;;;;;5089120;28;20413;-75
2023/05/05 05:54:24;;;;;;;16.27;6.97;;;10.50;99.90;;;;;;5089411;28;20441;-74
2023/05/05 05:56:50;;;;;;;13.23;6.90;;;10.40;99.90;;;;;;5090707;28;20408;-75
2023/05/05 05:59:15;;;;;;;13.13;6.95;;;10.30;99.90;;;;;;5089660;28;20422;-75
2023/05/05 06:01:41;;;;;;;15.67;7.27;;;10.30;99.90;;;;;;5091371;28;20417;-75
2023/05/05 06:04:07;;;;;;;11.60;6.32;;;10.30;99.90;;;;;;5090215;28;20489;-75
2023/05/05 06:06:33;;;;;;;12.57;6.43;;;10.40;99.90;;;;;;5092086;28;20860;-75
2023/05/05 06:08:58;;;;;;;11.75;6.50;;;10.40;99.90;;;;;;5090035;28;20488;-75
2023/05/05 06:11:24;;;;;;;19.48;7.50;;;10.40;99.90;;;;;;5092244;28;20937;-74
2023/05/05 06:13:50;;;;;;;13.07;6.65;;;10.30;99.90;;;;;;5090350;28;20403;-75
2023/05/05 06:16:16;;;;;;;14.10;7.13;;;10.40;99.90;;;;;;5093262;28;20406;-75
2023/05/05 06:18:41;;;;;;;14.48;7.35;;;10.40;99.90;;;;;;5091094;28;20402;-75
2023/05/05 06:21:07;;;;;;;13.03;6.97;;;10.40;99.90;;;;;;5091421;28;20410;-75
2023/05/05 06:23:32;;;;;;;12.50;6.25;;;10.40;99.90;;;;;;5072713;28;20764;-74
2023/05/05 06:25:58;;;;;;;11.80;6.10;;;10.40;99.90;;;;;;5075122;28;20517;-75
2023/05/05 06:28:24;;;;;;;11.90;5.75;;;10.50;99.90;;;;;;5089729;28;20972;-75
2023/05/05 06:30:50;;;;;;;12.67;6.60;;;10.50;99.90;;;;;;5086879;28;20405;-74
2023/05/05 06:33:16;;;;;;;12.57;5.75;;;10.60;99.90;;;;;;5090307;28;20462;-74
2023/05/05 06:35:41;;;;;;;12.13;5.80;;;10.60;99.90;;;;;;5094915;28;20402;-75
2023/05/05 06:38:08;;;;;;;11.55;5.93;;;10.70;99.90;;;;;;5087403;28;20402;-74
2023/05/05 06:40:34;;;;;;;11.20;5.77;;;10.80;99.90;;;;;;5084592;28;20550;-75
2023/05/05 06:42:59;;;;;;;10.70;5.10;;;10.80;99.90;;;;;;5087453;28;20481;-74
2023/05/05 06:45:25;;;;;;;8.10;5.15;;;10.90;99.90;;;;;;5070103;28;20436;-75
2023/05/05 06:47:51;;;;;;;10.77;5.13;;;10.90;99.90;;;;;;5087080;28;20783;-75
2023/05/05 06:50:17;;;;;;;10.93;5.53;;;10.90;99.90;;;;;;5086406;28;20413;-75
2023/05/05 06:52:43;;;;;;;8.38;5.05;;;11.00;99.90;;;;;;5071306;28;20467;-74
2023/05/05 06:55:08;;;;;;;11.43;5.30;;;11.00;99.90;;;;;;5088787;28;20426;-75
2023/05/05 06:57:34;;;;;;;10.55;5.55;;;11.10;99.90;;;;;;5071595;28;20413;-75
2023/05/05 07:00:04;;;;;;;10.95;5.85;;;11.00;99.90;;;;;;5083328;28;20522;-75
2023/05/05 07:02:30;;;;;;;11.50;6.32;;;11.10;99.90;;;;;;5083066;28;20406;-75
2023/05/05 07:04:56;;;;;;;11.10;6.38;;;11.10;99.90;;;;;;5089039;28;20433;-75
2023/05/05 07:07:21;;;;;;;11.30;5.93;;;11.10;99.90;;;;;;5086423;28;20772;-75
2023/05/05 07:09:47;;;;;;;11.70;6.20;;;11.20;99.90;;;;;;5079436;28;20431;-76
2023/05/05 07:12:13;;;;;;;11.10;5.55;;;11.10;99.90;;;;;;5069665;28;20450;-76
2023/05/05 07:14:39;;;;;;;11.57;5.90;;;11.10;99.90;;;;;;5076742;28;20429;-76
2023/05/05 07:17:05;;;;;;;11.77;6.30;;;11.20;99.90;;;;;;5086087;28;20406;-76
2023/05/05 07:19:30;;;;;;;12.70;6.77;;;11.20;99.90;;;;;;5075634;28;21025;-76
2023/05/05 07:21:56;;;;;;;11.25;6.72;;;11.30;99.90;;;;;;5082503;28;20932;-76
2023/05/05 07:24:23;;;;;;;14.33;7.77;;;11.30;99.90;;;;;;5085097;28;20464;-76
2023/05/05 07:26:48;;;;;;;11.32;6.68;;;11.40;99.90;;;;;;5075389;28;20514;-76
2023/05/05 07:29:14;;;;;;;10.10;5.40;;;11.40;99.90;;;;;;5075343;28;20452;-76
2023/05/05 07:31:40;;;;;;;10.67;5.60;;;11.40;99.90;;;;;;5078620;28;20410;-76
2023/05/05 07:34:05;;;;;;;8.30;5.03;;;11.40;99.90;;;;;;5078032;28;21196;-76
2023/05/05 07:36:31;;;;;;;10.73;5.30;;;11.30;99.90;;;;;;5071297;28;20445;-72
2023/05/05 07:38:57;;;;;;;10.02;5.00;;;11.30;99.90;;;;;;5087170;28;20485;-74
2023/05/05 07:41:22;;;;;;;9.77;5.37;;;11.30;99.90;;;;;;5087166;28;20413;-74
2023/05/05 07:43:48;;;;;;;9.10;5.28;;;11.30;99.90;;;;;;5088166;28;21064;-75
2023/05/05 07:46:14;;;;;;;11.83;5.47;;;11.30;99.90;;;;;;5102998;28;20512;-75
2023/05/05 07:48:40;;;;;;;10.32;5.60;;;11.30;99.90;;;;;;5087005;28;20555;-75
2023/05/05 07:51:06;;;;;;;11.37;5.60;;;11.50;99.90;;;;;;5083393;28;20435;-74
2023/05/05 07:53:31;;;;;;;11.77;5.22;;;11.50;99.90;;;;;;5087579;28;20507;-75
2023/05/05 07:55:57;;;;;;;9.00;5.60;;;11.70;99.90;;;;;;5089288;28;20425;-75
2023/05/05 07:58:23;;;;;;;8.38;5.50;;;11.80;99.90;;;;;;5092518;28;20448;-75
2023/05/05 08:00:49;;;;;;;12.53;5.73;;;11.90;99.90;;;;;;5106274;28;20915;-75
2023/05/05 08:03:16;;;;;;;10.68;5.63;;;12.00;99.90;;;;;;5091970;28;20481;-75
2023/05/05 08:05:41;;;;;;;8.63;5.47;;;12.10;99.90;;;;;;5091821;28;20433;-75
2023/05/05 08:08:07;;;;;;;9.80;6.03;;;12.10;99.90;;;;;;5093794;28;20398;-75
2023/05/05 08:10:33;;;;;;;11.67;6.23;;;12.20;99.90;;;;;;5091775;28;20423;-75
2023/05/05 08:12:58;;;;;;;11.68;6.22;;;12.30;99.90;;;;;;5092708;28;20415;-75
2023/05/05 08:15:24;;;;;;;10.90;6.17;;;12.40;99.90;;;;;;5093363;28;20941;-75
2023/05/05 08:17:51;;;;;;;10.68;6.32;;;12.50;99.90;;;;;;5075557;28;20406;-75
2023/05/05 08:20:19;;;;;;;11.65;6.72;;;12.70;99.90;;;;;;5093625;28;20409;-75
2023/05/05 08:22:45;;;;;;;8.93;6.28;;;12.80;99.90;;;;;;5096514;28;20421;-75
2023/05/05 08:25:12;;;;;;;9.25;6.05;;;13.00;99.90;;;;;;5091411;28;20478;-75
2023/05/05 08:27:39;;;;;;;9.98;6.22;;;13.00;99.90;;;;;;5095736;28;20421;-75
2023/05/05 08:30:05;;;;;;;10.50;6.40;;;13.10;99.90;;;;;;5094843;28;20429;-75
2023/05/05 08:32:31;;;;;;;12.60;6.63;;;13.10;99.90;;;;;;5094333;28;20487;-75
2023/05/05 08:34:57;;;;;;;10.50;6.82;;;13.20;99.90;;;;;;5073042;28;20418;-75
2023/05/05 08:37:23;;;;;;;11.80;6.35;;;13.20;99.90;;;;;;5092700;28;20406;-75
2023/05/05 08:39:48;;;;;;;11.63;6.30;;;13.40;99.90;;;;;;5088452;28;20463;-76
2023/05/05 08:42:14;;;;;;;13.02;7.15;;;13.50;99.90;;;;;;5089117;28;20485;-73
2023/05/05 08:44:40;;;;;;;12.03;7.27;;;13.60;99.90;;;;;;5090460;28;20409;-73
2023/05/05 08:47:09;;;;;;;12.63;7.07;;;13.70;99.90;;;;;;5090389;28;20930;-74
2023/05/05 08:49:42;;;;;;;12.98;7.45;;;13.90;99.90;;;;;;5090564;28;20402;-75
2023/05/05 08:52:10;;;;;;;10.07;7.10;;;14.00;99.90;;;;;;5077784;28;20413;-75
2023/05/05 08:54:41;;;;;;;12.27;7.15;;;14.10;99.90;;;;;;5089891;28;20438;-75
2023/05/05 08:57:09;;;;;;;10.32;6.60;;;14.10;99.90;;;;;;5089255;28;20411;-74
2023/05/05 08:59:35;;;;;;;11.30;7.30;;;14.20;99.90;;;;;;5071936;28;20438;-74
2023/05/05 09:02:03;;;;;;;10.88;7.63;;;14.30;99.90;;;;;;5088024;28;20814;-75
2023/05/05 09:04:30;;;;;;;9.10;6.97;;;14.40;99.90;;;;;;5090205;28;20836;-74
2023/05/05 09:06:59;;;;;;;11.13;7.63;;;14.50;99.90;;;;;;5089538;28;20480;-75
2023/05/05 09:09:26;;;;;;;12.10;7.38;;;14.70;99.90;;;;;;5089328;28;20402;-74
2023/05/05 09:11:53;;;;;;;11.10;6.80;;;14.80;99.90;;;;;;5089470;28;20412;-74
2023/05/05 09:14:19;;;;;;;11.25;7.38;;;14.90;99.90;;;;;;5088579;28;20406;-75
2023/05/05 09:16:45;;;;;;;10.53;7.13;;;15.00;99.90;;;;;;5090011;28;20412;-74
2023/05/05 09:19:10;;;;;;;10.75;7.38;;;15.10;99.90;;;;;;5090486;28;20434;-75
2023/05/05 09:21:45;;;;;;;13.30;7.90;;;15.30;99.90;;;;;;5088777;28;20929;-75
2023/05/05 09:24:12;;;;;;;12.48;7.20;;;15.50;99.90;;;;;;5072439;28;20410;-75
2023/05/05 09:26:42;;;;;;;10.50;7.47;;;16.00;99.90;;;;;;5089288;28;20980;-75
2023/05/05 09:29:08;;;;;;;10.18;7.05;;;16.40;99.90;;;;;;5087084;28;20409;-75
2023/05/05 09:31:35;;;;;;;10.27;6.97;;;16.80;99.90;;;;;;5089077;28;20475;-74
2023/05/05 09:34:11;;;;;;;10.98;8.05;;;17.10;99.90;;;;;;5088279;28;20422;-74
2023/05/05 09:36:48;;;;;;;12.25;7.88;;;17.50;99.90;;;;;;5089365;28;20398;-74
2023/05/05 09:39:17;;;;;;;11.93;7.47;;;17.90;99.90;;;;;;5078894;28;20484;-74
2023/05/05 09:41:43;;;;;;;;;;;18.30;99.90;;;;;;5072423;28;20044;-74
2023/05/05 09:44:09;;;;;;;;;;;18.60;99.90;;;;;;5089623;28;20461;-73
2023/05/05 09:46:35;;;;;;;9.07;6.30;;;18.80;99.90;;;;;;5090799;28;19997;-73
2023/05/05 09:49:15;;;;;;;10.15;7.20;;;19.00;99.90;;;;;;5089080;28;20405;-73
2023/05/05 09:51:41;;;;;;;10.40;7.15;;;19.30;99.90;;;;;;5089636;28;21011;-74
2023/05/05 09:54:06;;;;;;;10.38;7.60;;;19.40;99.90;;;;;;5088159;28;20489;-73
2023/05/05 09:56:38;;;;;;;10.93;7.80;;;19.70;99.90;;;;;;5089744;28;20426;-73
2023/05/05 09:59:08;;;;;;;11.20;7.70;;;19.80;99.90;;;;;;5087593;28;20757;-73
2023/05/05 10:01:33;;;;;;;11.85;7.40;;;19.90;99.90;;;;;;5091595;28;20401;-74
2023/05/05 10:03:59;;;;;;;9.95;7.47;;;20.10;99.90;;;;;;5087960;28;20398;-74
2023/05/05 10:06:42;;;;;;;10.43;7.57;;;20.20;99.90;;;;;;5089769;28;20438;-74
2023/05/05 10:09:07;;;;;;;10.80;7.80;;;20.40;99.90;;;;;;5092876;28;20405;-74
2023/05/05 10:11:33;;;;;;;10.02;7.53;;;20.70;99.90;;;;;;5091042;28;20402;-74
2023/05/05 10:14:00;;;;;;;12.20;7.97;;;20.80;99.90;;;;;;5097466;28;20400;-74
2023/05/05 10:16:28;;;;;;;12.32;8.40;;;21.00;99.90;;;;;;5091928;28;20783;-74
2023/05/05 10:18:57;;;;;;;10.57;8.55;;;21.20;99.90;;;;;;5097508;28;20408;-74
2023/05/05 10:21:24;;;;;;;10.65;8.27;;;21.30;99.90;;;;;;5093086;28;20492;-74
2023/05/05 10:24:13;;;;;;;11.45;8.60;;;21.30;99.90;;;;;;5089456;28;20896;-74
2023/05/05 10:26:41;;;;;;;13.50;8.68;;;21.50;99.90;;;;;;5094549;28;20495;-74
2023/05/05 10:29:15;;;;;;;10.27;8.32;;;21.60;99.90;;;;;;5096812;28;20413;-74
2023/05/05 10:31:48;;;;;;;11.02;7.63;;;21.80;99.90;;;;;;5096216;28;20618;-74
2023/05/05 10:34:25;;;;;;;14.38;7.70;;;22.00;99.90;;;;;;5093424;28;20410;-74
2023/05/05 10:36:52;;;;;;;;;;;22.20;99.90;;;;;;5093453;28;20028;-74
2023/05/05 10:39:18;;;;;;;;;;;22.50;99.90;;;;;;5090327;28;19977;-74
2023/05/05 10:41:46;;;;;;;10.10;6.43;;;22.50;99.90;;;;;;5089605;28;19947;-74
2023/05/05 10:44:12;;;;;;;;;;;22.60;99.90;;;;;;5090225;28;20119;-74
2023/05/05 10:46:39;;;;;;;;;;;22.80;99.90;;;;;;5089904;28;20381;-74
2023/05/05 10:49:07;;;;;;;;;;;22.70;99.90;;;;;;5090208;28;20579;-74
2023/05/05 10:51:36;;;;;;;;;;;22.40;99.90;;;;;;5091821;28;19926;-74
2023/05/05 10:54:06;;;;;;;;;;;22.30;99.90;;;;;;5090136;28;19986;-75
2023/05/05 10:56:32;;;;;;;;;;;22.50;99.90;;;;;;5089690;28;19963;-74
2023/05/05 10:58:58;;;;;;;;;;;22.60;99.90;;;;;;5086958;28;19920;-74
2023/05/05 11:01:33;;;;;;;;;;;22.50;99.90;;;;;;5091105;28;19926;-74
2023/05/05 11:04:18;;;;;;;10.40;7.07;;;22.50;99.90;;;;;;5082357;28;19920;-74
2023/05/05 11:07:09;;;;;;;11.20;7.78;;;22.70;99.90;;;;;;5076296;28;20832;-74
2023/05/05 11:09:41;;;;;;;10.30;7.72;;;22.70;99.90;;;;;;5088062;28;20479;-74
2023/05/05 11:12:07;;;;;;;13.85;8.02;;;22.60;99.90;;;;;;5086330;28;20914;-74
2023/05/05 11:14:33;;;;;;;10.13;7.93;;;22.40;99.90;;;;;;5089451;28;20847;-74
2023/05/05 11:16:59;;;;;;;11.30;7.88;;;22.70;99.90;;;;;;5086050;28;20407;-74
2023/05/05 11:19:43;;;;;;;13.07;8.27;;;23.00;99.90;;;;;;5090406;28;20919;-75
2023/05/05 11:22:10;;;;;;;10.98;8.45;;;23.20;99.90;;;;;;5086126;28;20426;-74
2023/05/05 11:24:36;;;;;;;11.48;7.60;;;23.20;99.90;;;;;;5077999;28;20514;-74
2023/05/05 11:27:02;;;;;;;;;;;23.20;99.90;;;;;;5078690;28;20554;-74
2023/05/05 11:29:46;;;;;;;;;;;23.20;99.90;;;;;;5087970;28;19970;-74
2023/05/05 11:32:13;;;;;;;;;;;23.10;99.90;;;;;;5094935;28;19928;-74
2023/05/05 11:34:48;;;;;;;;;;;22.90;99.90;;;;;;5091073;28;20429;-74
2023/05/05 11:37:15;;;;;;;;;;;22.50;99.90;;;;;;5089459;28;20479;-74
2023/05/05 11:39:47;;;;;;;;;;;22.20;99.90;;;;;;5083905;28;19924;-74
2023/05/05 11:42:12;;;;;;;;;;;22.00;99.90;;;;;;5078107;28;20003;-74
2023/05/05 11:44:38;;;;;;;;;;;21.90;99.90;;;;;;5081942;28;20015;-74
2023/05/05 11:47:04;;;;;;;;;;;21.80;99.90;;;;;;5083199;28;20365;-74
2023/05/05 11:49:30;;;;;;;;;;;21.70;99.90;;;;;;5074936;28;19928;-74
2023/05/05 11:51:59;;;;;;;;;;;21.60;99.90;;;;;;5096136;28;19924;-74
2023/05/05 11:54:25;;;;;;;;;;;21.30;99.90;;;;;;5092600;28;19919;-74
2023/05/05 11:56:55;;;;;;;;;;;21.10;99.90;;;;;;5094813;28;19951;-74
2023/05/05 11:59:21;;;;;;;;;;;20.80;99.90;;;;;;5096296;28;20003;-74
2023/05/05 12:01:46;;;;;;;;;;;20.70;99.90;;;;;;5093833;28;20010;-74
2023/05/05 12:04:15;;;;;;;;;;;20.60;99.90;;;;;;5095997;28;20417;-74
2023/05/05 12:06:41;;;;;;;;;;;20.60;99.90;;;;;;5092526;28;19927;-74
2023/05/05 12:09:14;;;;;;;;;;;20.70;99.90;;;;;;5094999;28;19920;-74
2023/05/05 12:11:51;;;;;;;;;;;20.90;99.90;;;;;;5087355;28;19973;-74
2023/05/05 12:14:17;;;;;;;;;;;21.10;99.90;;;;;;5094813;28;19920;-74
2023/05/05 12:16:53;;;;;;;;;;;21.30;99.90;;;;;;5093739;28;19920;-75
2023/05/05 12:19:18;;;;;;;;;;;21.40;99.90;;;;;;5078480;28;19924;-74
2023/05/05 12:21:44;;;;;;;;;;;21.60;99.90;;;;;;5093513;28;20305;-74
2023/05/05 12:24:13;;;;;;;;;;;21.70;99.90;;;;;;5097035;28;20404;-74
2023/05/05 12:26:38;;;;;;;;;;;21.80;99.90;;;;;;5095041;28;20019;-75
2023/05/05 12:29:04;;;;;;;;;;;21.90;99.90;;;;;;5097461;28;20018;-74
2023/05/05 12:31:33;;;;;;;;;;;21.90;99.90;;;;;;5076109;28;19920;-74
2023/05/05 12:33:58;;;;;;;;;;;21.90;99.90;;;;;;5097603;28;19926;-74
2023/05/05 12:36:24;;;;;;;;;;;21.90;99.90;;;;;;5093517;28;20317;-74
2023/05/05 12:38:50;;;;;;;;;;;21.90;99.90;;;;;;5091514;28;19924;-74
2023/05/05 12:41:19;;;;;;;;;;;21.90;99.90;;;;;;5092740;28;19920;-74
2023/05/05 12:43:46;;;;;;;;;;;22.00;99.90;;;;;;5092410;28;19924;-74
2023/05/05 12:46:12;;;;;;;;;;;21.80;99.90;;;;;;5089893;28;19993;-74
2023/05/05 12:48:39;;;;;;;;;;;21.80;99.90;;;;;;5090357;28;19927;-74
2023/05/05 12:51:15;;;;;;;;;;;21.70;99.90;;;;;;5093263;28;20487;-74
2023/05/05 12:53:41;;;;;;;;;;;21.60;99.90;;;;;;5091100;28;19969;-74
2023/05/05 12:56:25;;;;;;;;;;;21.60;99.90;;;;;;5092102;28;20356;-75
2023/05/05 12:58:51;;;;;;;;;;;21.70;99.90;;;;;;5093537;28;20390;-74